createdAt,value
2022-12-05T00:00:04.374Z,33.3
2022-12-05T00:05:06.170Z,33.3
2022-12-05T00:10:07.971Z,33.2
2022-12-05T00:15:09.818Z,33.2
2022-12-05T00:20:11.619Z,33.2
2022-12-05T00:25:13.446Z,33.2
2022-12-05T00:30:15.291Z,33.2
2022-12-05T00:35:17.107Z,33.1
2022-12-05T00:40:19.139Z,33.1
2022-12-05T00:45:21.202Z,33.1
2022-12-05T00:50:22.994Z,33.1
2022-12-05T00:55:24.748Z,33.1
2022-12-05T01:00:26.556Z,33
2022-12-05T01:05:28.407Z,33
2022-12-05T01:10:30.233Z,32.9
2022-12-05T01:15:32.079Z,32.9
2022-12-05T01:20:33.888Z,32.9
2022-12-05T01:25:35.694Z,32.9
2022-12-05T01:30:37.775Z,32.9
2022-12-05T01:35:39.797Z,32.9
2022-12-05T01:40:41.856Z,32.8
2022-12-05T01:45:43.943Z,32.8
2022-12-05T01:50:45.792Z,32.7
2022-12-05T01:55:47.608Z,32.7
2022-12-05T02:00:49.487Z,32.7
2022-12-05T02:05:51.273Z,32.7
2022-12-05T02:10:53.057Z,32.7
2022-12-05T02:15:57.043Z,32.6
2022-12-05T02:20:59.237Z,32.6
2022-12-05T02:26:01.015Z,32.6
2022-12-05T02:31:02.923Z,32.6
2022-12-05T02:36:04.772Z,32.6
2022-12-05T02:41:06.560Z,32.6
2022-12-05T02:46:08.481Z,32.5
2022-12-05T02:51:10.376Z,32.5
2022-12-05T02:56:12.379Z,32.4
2022-12-05T03:01:14.519Z,32.4
2022-12-05T03:06:16.333Z,32.4
2022-12-05T03:11:18.143Z,32.4
2022-12-05T03:16:20.005Z,32.4
2022-12-05T03:21:21.826Z,32.4
2022-12-05T03:26:23.635Z,32.4
2022-12-05T03:31:25.509Z,32.3
2022-12-05T03:36:27.299Z,32.3
2022-12-05T03:41:29.073Z,32.2
2022-12-05T03:46:30.926Z,32.2
2022-12-05T03:51:32.760Z,32.2
2022-12-05T03:56:34.789Z,32.2
2022-12-05T04:01:36.661Z,32.2
2022-12-05T04:06:38.477Z,32.2
2022-12-05T04:11:40.280Z,32.2
2022-12-05T04:16:42.096Z,32.1
2022-12-05T04:21:43.892Z,32.1
2022-12-05T04:26:45.647Z,32.1
2022-12-05T04:31:47.470Z,32.1
2022-12-05T04:36:49.189Z,32.1
2022-12-05T04:41:50.925Z,32.1
2022-12-05T04:46:52.970Z,32
2022-12-05T04:51:54.766Z,32
2022-12-05T04:57:00.960Z,32
2022-12-05T05:02:02.971Z,31.9
2022-12-05T05:07:04.734Z,31.9
2022-12-05T05:12:06.539Z,31.9
2022-12-05T05:17:08.299Z,31.9
2022-12-05T05:22:10.236Z,31.9
2022-12-05T05:27:11.937Z,31.9
2022-12-05T05:32:13.691Z,31.9
2022-12-05T05:37:15.424Z,31.8
2022-12-05T05:42:17.360Z,31.8
2022-12-05T05:47:19.317Z,31.8
2022-12-05T05:52:21.040Z,31.8
2022-12-05T05:57:22.797Z,31.8
2022-12-05T06:02:24.619Z,31.8
2022-12-05T06:07:26.597Z,31.8
2022-12-05T06:12:28.283Z,31.7
2022-12-05T06:17:30.015Z,31.7
2022-12-05T06:22:31.727Z,31.7
2022-12-05T06:27:33.678Z,31.7
2022-12-05T06:32:35.677Z,31.6
2022-12-05T06:37:37.413Z,31.6
2022-12-05T06:42:39.362Z,31.6
2022-12-05T06:47:41.340Z,31.6
2022-12-05T06:52:43.287Z,31.6
2022-12-05T06:57:45.238Z,31.6
2022-12-05T07:02:47.369Z,31.5
2022-12-05T07:07:49.454Z,31.5
2022-12-05T07:12:51.453Z,31.5
2022-12-05T07:17:53.474Z,31.5
2022-12-05T07:22:55.446Z,31.4
2022-12-05T07:27:57.415Z,31.4
2022-12-05T07:32:59.782Z,31.4
2022-12-05T07:38:01.746Z,31.4
2022-12-05T07:43:03.734Z,31.4
2022-12-05T07:48:05.725Z,31.4
2022-12-05T07:53:07.480Z,31.4
2022-12-05T07:58:09.431Z,31.4
2022-12-05T08:03:11.428Z,31.3
2022-12-05T08:08:13.186Z,31.3
2022-12-05T08:13:14.926Z,31.3
2022-12-05T08:18:16.918Z,31.2
2022-12-05T08:23:18.850Z,31.2
2022-12-05T08:28:20.838Z,31.2
2022-12-05T08:33:22.864Z,31.2
2022-12-05T08:38:24.809Z,31.2
2022-12-05T08:43:26.520Z,31.2
2022-12-05T08:48:29.534Z,31.2
2022-12-05T08:53:31.417Z,31.2
2022-12-05T08:58:33.331Z,31.1
2022-12-05T09:03:35.286Z,31.1
2022-12-05T09:08:37.199Z,31.1
2022-12-05T09:13:39.121Z,31.1
2022-12-05T09:18:41.099Z,31.1
2022-12-05T09:23:42.789Z,31.1
2022-12-05T09:28:44.691Z,31.1
2022-12-05T09:33:46.623Z,31.1
2022-12-05T09:38:48.311Z,31
2022-12-05T09:43:50.238Z,31
2022-12-05T09:48:52.240Z,31
2022-12-05T09:53:54.206Z,30.9
2022-12-05T09:58:56.373Z,30.9
2022-12-05T10:03:58.144Z,30.9
2022-12-05T10:09:00.328Z,30.9
2022-12-05T10:14:02.316Z,30.9
2022-12-05T10:19:04.066Z,30.9
2022-12-05T10:24:06.054Z,30.9
2022-12-05T10:29:07.782Z,30.9
2022-12-05T10:34:09.806Z,30.9
2022-12-05T10:39:11.781Z,30.9
2022-12-05T10:44:13.561Z,30.8
2022-12-05T10:49:15.577Z,30.8
2022-12-05T10:54:17.554Z,30.8
2022-12-05T10:59:19.552Z,30.8
2022-12-05T11:04:22.544Z,30.8
2022-12-05T11:09:26.095Z,30.8
2022-12-05T11:14:28.119Z,30.8
2022-12-05T11:19:30.109Z,30.7
2022-12-05T11:24:32.077Z,30.7
2022-12-05T11:29:34.028Z,30.7
2022-12-05T11:34:35.849Z,30.7
2022-12-05T11:39:37.826Z,30.7
2022-12-05T11:44:39.844Z,30.6
2022-12-05T11:49:41.658Z,30.6
2022-12-05T11:55:07.548Z,30.6
2022-12-05T12:00:09.336Z,30.6
2022-12-05T12:05:11.347Z,30.6
2022-12-05T12:10:13.308Z,30.6
2022-12-05T12:15:15.296Z,30.5
2022-12-05T12:20:17.081Z,30.5
2022-12-05T12:25:18.853Z,30.5
2022-12-05T12:30:20.791Z,30.5
2022-12-05T12:35:22.805Z,30.5
2022-12-05T12:40:24.548Z,30.4
2022-12-05T12:45:26.361Z,30.4
2022-12-05T12:50:28.122Z,30.4
2022-12-05T12:55:29.838Z,30.4
2022-12-05T13:00:31.550Z,30.4
2022-12-05T13:05:33.306Z,30.4
2022-12-05T13:10:35.038Z,30.4
2022-12-05T13:15:36.809Z,30.3
2022-12-05T13:20:38.775Z,30.3
2022-12-05T13:25:40.579Z,30.3
2022-12-05T13:30:42.287Z,30.3
2022-12-05T13:35:44.048Z,30.3
2022-12-05T13:40:45.740Z,30.3
2022-12-05T13:45:47.582Z,30.3
2022-12-05T13:50:49.437Z,30.3
2022-12-05T13:55:51.137Z,30.3
2022-12-05T14:00:52.903Z,30.2
2022-12-05T14:05:54.692Z,30.2
2022-12-05T14:10:56.372Z,30.2
2022-12-05T14:15:58.055Z,30.2
2022-12-05T14:20:59.796Z,30.2
2022-12-05T14:26:07.131Z,30.1
2022-12-05T14:31:10.257Z,30.1
2022-12-05T14:36:12.060Z,30.1
2022-12-05T14:41:14.052Z,30.1
2022-12-05T14:46:15.856Z,30.1
2022-12-05T14:51:17.768Z,30.1
2022-12-05T14:56:19.490Z,30.1
2022-12-05T15:01:21.347Z,30.1
2022-12-05T15:06:23.113Z,30
2022-12-05T15:11:24.808Z,30
2022-12-05T15:16:26.945Z,30
2022-12-05T15:21:28.927Z,30
2022-12-05T15:26:45.935Z,30
2022-12-05T15:31:48.799Z,29.9
2022-12-05T15:36:50.533Z,29.9
2022-12-05T15:41:52.224Z,29.8
2022-12-05T15:46:54.157Z,29.7
2022-12-05T15:51:56.085Z,29.7
2022-12-05T15:56:58.007Z,29.6
2022-12-05T16:02:00.007Z,29.6
2022-12-05T16:07:01.785Z,29.6
2022-12-05T16:12:03.718Z,29.6
2022-12-05T16:17:05.433Z,29.6
2022-12-05T16:22:07.371Z,29.6
2022-12-05T16:27:09.077Z,29.6
2022-12-05T16:32:11.001Z,29.6
2022-12-05T16:37:12.710Z,29.6
2022-12-05T16:42:14.650Z,29.6
2022-12-05T16:47:16.582Z,29.6
2022-12-05T16:52:18.288Z,29.6
2022-12-05T16:57:19.986Z,29.5
2022-12-05T17:02:21.966Z,29.5
2022-12-05T17:07:24.001Z,29.5
2022-12-05T17:12:25.674Z,29.8
2022-12-05T17:17:27.644Z,33.4
2022-12-05T17:22:27.849Z,36
2022-12-05T17:27:28.115Z,38.7
2022-12-05T17:32:28.462Z,41.1
2022-12-05T17:37:29.007Z,41.5
2022-12-05T17:42:29.611Z,42.3
2022-12-05T17:47:30.088Z,42.8
2022-12-05T17:52:30.505Z,42.9
2022-12-05T17:57:31.153Z,42.7
2022-12-05T18:02:31.616Z,43.2
2022-12-05T18:07:32.182Z,44.2
2022-12-05T18:12:32.683Z,44.4
2022-12-05T18:17:33.387Z,44.4
2022-12-05T18:22:33.866Z,44.4
2022-12-05T18:27:34.350Z,44.4
2022-12-05T18:32:34.811Z,44.4
2022-12-05T18:37:35.627Z,44.2
2022-12-05T18:42:36.141Z,43.6
2022-12-05T18:47:36.793Z,43.3
2022-12-05T18:52:37.475Z,43.3
2022-12-05T18:57:37.922Z,43.2
2022-12-05T19:02:38.678Z,43.2
2022-12-05T19:07:39.446Z,43.1
2022-12-05T19:12:40.139Z,43.1
2022-12-05T19:17:40.832Z,43
2022-12-05T19:22:41.517Z,42.9
2022-12-05T19:27:42.171Z,42.9
2022-12-05T19:32:42.841Z,42.8
2022-12-05T19:37:43.487Z,42.7
2022-12-05T19:42:43.932Z,42.7
2022-12-05T19:47:44.368Z,42.6
2022-12-05T19:52:44.804Z,42.6
2022-12-05T19:57:45.213Z,42.5
2022-12-05T20:02:46.022Z,42.4
2022-12-05T20:07:46.913Z,42.4
2022-12-05T20:12:47.574Z,42.3
2022-12-05T20:17:52.944Z,42.2
2022-12-05T20:22:53.860Z,42.1
2022-12-05T20:27:54.541Z,42
2022-12-05T20:32:55.173Z,41.9
2022-12-05T20:37:55.764Z,41.8
2022-12-05T20:42:56.163Z,41.7
2022-12-05T20:47:56.746Z,41.7
2022-12-05T20:52:57.365Z,41.6
2022-12-05T20:58:00.147Z,41.6
2022-12-05T21:03:03.104Z,41.5
2022-12-05T21:08:03.806Z,41.4
2022-12-05T21:13:04.275Z,41.2
2022-12-05T21:18:04.928Z,40.8
2022-12-05T21:23:05.552Z,40.6
2022-12-05T21:28:06.163Z,40.6
2022-12-05T21:33:06.766Z,40.5
2022-12-05T21:38:07.162Z,40.4
2022-12-05T21:43:07.548Z,40.3
2022-12-05T21:48:07.928Z,40.2
2022-12-05T21:53:08.517Z,40.2
2022-12-05T21:58:09.133Z,40.1
2022-12-05T22:03:09.499Z,40.1
2022-12-05T22:08:09.966Z,40
2022-12-05T22:13:10.338Z,39.9
2022-12-05T22:18:10.693Z,39.9
2022-12-05T22:23:15.376Z,39.8
2022-12-05T22:28:17.185Z,39.7
2022-12-05T22:33:17.536Z,39.7
2022-12-05T22:38:18.101Z,39.6
2022-12-05T22:43:18.689Z,39.6
2022-12-05T22:48:19.067Z,39.5
2022-12-05T22:53:19.628Z,39.4
2022-12-05T22:58:19.967Z,39.4
2022-12-05T23:03:20.382Z,39.3
2022-12-05T23:08:21.121Z,39.2
2022-12-05T23:13:21.763Z,39.1
2022-12-05T23:18:22.323Z,39.1
2022-12-05T23:23:22.621Z,39.1
2022-12-05T23:28:22.985Z,39
2022-12-05T23:33:23.317Z,38.9
2022-12-05T23:38:23.627Z,38.9
2022-12-05T23:43:23.964Z,38.8
2022-12-05T23:48:24.494Z,38.7
2022-12-05T23:53:24.845Z,38.7
2022-12-05T23:58:25.201Z,38.6
